ADDS METAR Data INFO
IDs: Format: Raw Decoded Include TAF

Data at: 0552 UTC 11 Dec 2017

METAR for:KMIA (Miami Intl, FL, US)
Text:KMIA 110453Z 32004KT 10SM CLR 13/05 A3027 RMK AO2 SLP250 T01280050 401780100 $
Temperature: 12.8°C ( 55°F)
Dewpoint: 5.0°C ( 41°F) [RH = 59%]
Pressure (altimeter):30.27 inches Hg (1025.1 mb) [Sea level pressure: 1025.0 mb]
Winds:from the NW (320 degrees) at 5 MPH (4 knots; 2.1 m/s)
Visibility:10 or more sm (16+ km)
Ceiling:at least 12,000 feet AGL
Clouds:sky clear below 12,000 feet AGL
QC Flag:SOME DATA ABOVE MAY BE INACCURATE!!!"$" is an indication the sensor requires maintenance.